Speaks, Texas
Current Conditions -  °F | °C
As of 1:35 AM on Saturday 29 Nov 2014 (Local Time) from K66R Reporting Station
Clear Clear  
Wind Chill: 54°   Ceiling: Unl
Heat Index: 54°   Visibility: 10mi
Dew Point: 53°   Wind: 3mph
Humidity: 97%   Direction: 170°S
Pressure: 30.1"   Gusts: NA
Location:  29.25°N, 96.7°W
Report Text: K66R 290735Z AUTO 17003KT 10SM CLR 12/12 A3010 RMK AO2 T01200116
Loading
Personal Weather Stations






























Interactive Weather Map New forecast layout! Learn more

10-Day Weather Forecast

Advertisements
Track Severe Weather on mobile